Time;durP1;ratioP1;P1;durP2;ratioP2;P2;SDS_P1;SDS_P2;PMS_P1;PMS_P2;Temp;Humidity;BMP_temperature;BMP_pressure;BME280_temperature;BME280_humidity;BME280_pressure;Samples;Min_cycle;Max_cycle;Signal;HPM_P1;HPM_P2
2021/10/27 00:03:22;;;;;;;1295.40;999.90;;;;;;;22.42;41.41;95708.50;4997739;22;20100;-66
2021/10/27 00:05:47;;;;;;;1292.38;999.90;;;;;;;22.41;41.29;95701.56;5059700;28;20496;-65
2021/10/27 00:08:13;;;;;;;1292.13;999.90;;;;;;;22.41;41.35;95698.84;5075996;28;20033;-66
2021/10/27 00:10:38;;;;;;;1290.05;999.90;;;;;;;22.36;41.43;95699.56;5060221;28;20025;-65
2021/10/27 00:13:06;;;;;;;1300.68;999.90;;;;;;;22.36;41.24;95699.56;5047631;28;20844;-66
2021/10/27 00:15:32;;;;;;;1305.70;999.90;;;;;;;22.36;41.31;95688.69;5062176;28;20556;-66
2021/10/27 00:17:57;;;;;;;1305.53;999.90;;;;;;;22.34;41.59;95696.56;5047185;28;20036;-65
2021/10/27 00:20:23;;;;;;;1309.75;999.90;;;;;;;22.33;41.70;95689.66;5047172;28;20032;-66
2021/10/27 00:22:48;;;;;;;1314.03;999.90;;;;;;;22.31;41.45;95691.38;5046767;28;20029;-65
2021/10/27 00:25:13;;;;;;;1323.68;999.90;;;;;;;22.30;41.51;95695.31;5047506;28;20538;-65
2021/10/27 00:27:40;;;;;;;1323.25;999.90;;;;;;;22.18;41.73;95678.16;5062041;28;20434;-66
2021/10/27 00:30:06;;;;;;;1322.65;999.90;;;;;;;22.28;41.63;95693.06;5046495;28;20025;-66
2021/10/27 00:32:32;;;;;;;1326.05;999.90;;;;;;;22.22;41.61;95677.94;5046510;28;20047;-65
2021/10/27 00:34:57;;;;;;;1326.55;999.90;;;;;;;22.26;41.85;95695.53;5028657;28;20414;-66
2021/10/27 00:37:23;;;;;;;1330.10;999.90;;;;;;;22.22;41.58;95684.13;5028760;28;20039;-66
2021/10/27 00:39:48;;;;;;;1331.68;999.90;;;;;;;22.23;41.72;95691.06;5029051;28;20041;-65
2021/10/27 00:42:14;;;;;;;1331.20;999.90;;;;;;;22.23;41.74;95685.63;5062102;28;20170;-66
2021/10/27 00:44:40;;;;;;;1327.25;999.90;;;;;;;22.21;41.72;95688.09;5062070;28;20053;-65
2021/10/27 00:47:09;;;;;;;1330.43;999.90;;;;;;;22.23;41.77;95685.63;5046073;28;20043;-65
2021/10/27 00:49:36;;;;;;;1329.03;999.90;;;;;;;22.20;41.81;95692.00;5046057;28;20031;-66
2021/10/27 00:52:03;;;;;;;1331.70;999.90;;;;;;;22.18;41.80;95689.03;5045855;28;20068;-65
2021/10/27 00:54:29;;;;;;;1332.38;999.90;;;;;;;22.18;41.83;95693.72;5046134;28;20422;-66
2021/10/27 00:56:55;;;;;;;1332.80;999.90;;;;;;;22.13;41.78;95683.53;5046555;28;20021;-66
2021/10/27 00:59:21;;;;;;;1333.10;999.90;;;;;;;22.18;42.01;95686.31;5044696;28;20017;-66
2021/10/27 01:01:47;;;;;;;1332.68;999.90;;;;;;;22.13;41.84;95687.00;5044662;28;20029;-65
2021/10/27 01:04:12;;;;;;;1331.53;999.90;;;;;;;22.13;41.79;95687.00;5045284;28;20041;-66
2021/10/27 01:06:38;;;;;;;1330.25;999.90;;;;;;;22.12;41.93;95685.53;5045849;28;20055;-65
2021/10/27 01:09:03;;;;;;;1332.22;999.90;;;;;;;22.01;41.72;95673.81;5045676;28;20029;-65
2021/10/27 01:11:29;;;;;;;1332.70;999.90;;;;;;;22.11;41.83;95686.75;5027499;28;20020;-65
2021/10/27 01:13:54;;;;;;;1332.68;999.90;;;;;;;22.11;42.02;95689.47;5045650;28;20037;-65
2021/10/27 01:16:20;;;;;;;1333.45;999.90;;;;;;;22.07;42.10;95678.06;5045714;28;20032;-65
2021/10/27 01:18:45;;;;;;;1334.05;999.90;;;;;;;22.10;41.69;95687.97;5045895;28;20025;-65
2021/10/27 01:21:11;;;;;;;1332.70;999.90;;;;;;;22.09;42.08;95691.94;5045516;28;20036;-65
2021/10/27 01:23:36;;;;;;;1330.90;999.90;;;;;;;22.10;42.02;95696.13;5044454;28;20036;-65
2021/10/27 01:26:06;;;;;;;1330.60;999.90;;;;;;;22.07;41.93;95697.09;5045754;28;20035;-65
2021/10/27 01:28:36;;;;;;;1334.88;999.90;;;;;;;22.08;41.94;95701.31;5027943;28;20029;-65
2021/10/27 01:31:01;;;;;;;;;;;;;;;22.08;42.08;95703.31;5045779;28;20602;-66
2021/10/27 01:33:27;;;;;;;1333.00;999.90;;;;;;;21.95;42.13;95687.38;5045346;28;19912;-65
2021/10/27 01:35:52;;;;;;;1332.65;999.90;;;;;;;22.05;42.10;95696.84;5044130;28;20411;-65
2021/10/27 01:38:18;;;;;;;1331.90;999.90;;;;;;;22.03;42.06;95688.44;5060590;28;20072;-65
2021/10/27 01:40:43;;;;;;;1331.97;999.90;;;;;;;22.05;42.16;95696.13;5060466;28;20033;-65
2021/10/27 01:43:09;;;;;;;1327.82;999.90;;;;;;;22.01;42.03;95690.88;5044889;28;20112;-65
2021/10/27 01:45:35;;;;;;;1332.82;999.90;;;;;;;22.01;42.22;95690.13;5027169;28;20086;-65
2021/10/27 01:48:01;;;;;;;1330.63;999.90;;;;;;;22.01;42.26;95685.44;5044959;28;20487;-65
2021/10/27 01:50:26;;;;;;;1329.75;999.90;;;;;;;22.01;42.06;95685.44;5060196;28;20024;-65
2021/10/27 01:52:52;;;;;;;1328.28;999.90;;;;;;;22.01;42.22;95696.31;5044508;28;20029;-65
2021/10/27 01:55:17;;;;;;;1326.20;999.90;;;;;;;21.73;41.98;95658.53;5027299;28;20104;-65
2021/10/27 01:57:43;;;;;;;1328.63;999.90;;;;;;;21.99;42.10;95693.34;5026977;28;20784;-65
2021/10/27 02:00:09;;;;;;;1325.22;999.90;;;;;;;21.98;42.08;95701.97;5045023;28;20041;-65
2021/10/27 02:02:34;;;;;;;1318.55;999.90;;;;;;;21.85;42.35;95690.00;5043377;28;20090;-65
2021/10/27 02:05:00;;;;;;;1322.88;999.90;;;;;;;21.92;42.39;95701.94;5043855;28;20115;-65
2021/10/27 02:07:25;;;;;;;1320.68;999.90;;;;;;;21.96;42.07;95705.19;5026833;28;20507;-65
2021/10/27 02:09:51;;;;;;;1321.75;999.90;;;;;;;21.95;42.29;95706.41;5026939;28;20024;-65
2021/10/27 02:12:17;;;;;;;1324.25;999.90;;;;;;;21.94;42.20;95713.09;5044244;28;20102;-66
2021/10/27 02:14:42;;;;;;;1314.22;999.90;;;;;;;21.95;42.26;95720.00;5044691;28;20024;-66
2021/10/27 02:17:08;;;;;;;1321.55;999.90;;;;;;;21.92;42.21;95715.53;5026481;28;20159;-65
2021/10/27 02:19:33;;;;;;;1316.35;999.90;;;;;;;21.93;42.50;95699.97;5044784;28;20111;-65
2021/10/27 02:21:58;;;;;;;1315.25;999.90;;;;;;;21.89;42.25;95709.59;5044139;28;20889;-65
2021/10/27 02:24:24;;;;;;;1312.30;999.90;;;;;;;21.91;42.37;95712.56;5044521;28;20070;-66
2021/10/27 02:26:49;;;;;;;1310.95;999.90;;;;;;;21.91;42.22;95718.00;5044515;28;20434;-66
2021/10/27 02:29:15;;;;;;;1305.93;999.90;;;;;;;21.89;42.32;95720.47;5044616;28;20032;-66
2021/10/27 02:31:41;;;;;;;1303.95;999.90;;;;;;;21.91;42.34;95718.00;5059258;28;20029;-66
2021/10/27 02:34:06;;;;;;;1302.40;999.90;;;;;;;21.89;42.32;95720.47;5044291;28;20040;-66
2021/10/27 02:36:32;;;;;;;1299.25;999.90;;;;;;;21.81;42.27;95713.94;5044317;28;20033;-66
2021/10/27 02:38:57;;;;;;;1296.88;999.90;;;;;;;21.87;42.15;95712.00;5044433;28;20075;-65
2021/10/27 02:41:22;;;;;;;1291.60;999.90;;;;;;;21.87;42.38;95717.44;5044099;28;20048;-65
2021/10/27 02:43:48;;;;;;;1269.20;999.90;;;;;;;21.87;42.40;95717.44;5043939;28;20074;-66
2021/10/27 02:46:13;;;;;;;1264.65;999.90;;;;;;;21.87;42.31;95717.44;5044499;28;20028;-66
2021/10/27 02:48:39;;;;;;;1259.00;999.90;;;;;;;21.87;42.10;95722.91;5059505;28;20036;-65
2021/10/27 02:51:04;;;;;;;1260.80;999.90;;;;;;;21.86;42.35;95715.97;5043372;28;20033;-66
2021/10/27 02:53:30;;;;;;;1266.18;999.90;;;;;;;21.85;42.55;95714.47;5025867;28;20086;-66
2021/10/27 02:55:56;;;;;;;1270.70;999.90;;;;;;;21.83;42.32;95712.25;5026092;28;20033;-66
2021/10/27 02:58:21;;;;;;;1267.88;999.90;;;;;;;21.83;42.42;95716.94;5043973;28;20036;-65
2021/10/27 03:00:47;;;;;;;1343.32;999.90;;;;;;;21.81;42.34;95708.50;5044326;28;20029;-65
2021/10/27 03:03:12;;;;;;;1348.30;999.90;;;;;;;21.81;42.38;95709.28;5041366;28;20041;-65
2021/10/27 03:05:38;;;;;;;1341.97;999.90;;;;;;;21.80;42.36;95707.03;5043764;28;20025;-65
2021/10/27 03:08:03;;;;;;;1352.90;999.90;;;;;;;21.79;42.51;95710.97;5043969;28;20089;-65
2021/10/27 03:10:29;;;;;;;1355.20;999.90;;;;;;;21.65;42.30;95695.53;5044196;28;20021;-65
2021/10/27 03:12:54;;;;;;;1354.00;999.90;;;;;;;21.77;42.43;95714.16;5009338;28;20037;-66
2021/10/27 03:15:19;;;;;;;1351.90;999.90;;;;;;;21.63;42.34;95703.44;5043743;28;20036;-66
2021/10/27 03:17:45;;;;;;;1344.80;999.90;;;;;;;21.75;42.72;95715.88;5026108;28;20032;-65
2021/10/27 03:20:10;;;;;;;1355.13;999.90;;;;;;;21.76;42.43;95722.81;5044193;28;20040;-65
2021/10/27 03:22:36;;;;;;;1358.85;999.90;;;;;;;21.76;42.47;95728.25;5043808;28;20029;-66
2021/10/27 03:25:02;;;;;;;1358.25;999.90;;;;;;;21.76;42.53;95722.81;5043807;28;20055;-65
2021/10/27 03:27:27;;;;;;;1358.35;999.90;;;;;;;21.73;42.38;95729.19;5044127;28;20029;-65
2021/10/27 03:29:53;;;;;;;1356.97;999.90;;;;;;;21.73;42.49;95729.19;5044007;28;20439;-65
2021/10/27 03:32:18;;;;;;;1358.90;999.90;;;;;;;21.71;42.71;95723.50;5043774;28;20033;-65
2021/10/27 03:34:44;;;;;;;1351.85;999.90;;;;;;;21.71;42.63;95721.53;5059795;28;20051;-65
2021/10/27 03:37:09;;;;;;;1359.75;999.90;;;;;;;21.75;42.52;95721.31;5044247;28;20029;-65
2021/10/27 03:39:35;;;;;;;1364.78;999.90;;;;;;;21.73;42.60;95721.06;5025940;28;20430;-65
2021/10/27 03:42:00;;;;;;;1368.25;999.90;;;;;;;21.74;42.40;95730.72;5043683;28;20112;-65
2021/10/27 03:44:26;;;;;;;1373.05;999.90;;;;;;;21.73;42.46;95723.78;5025844;28;20044;-65
2021/10/27 03:46:52;;;;;;;1368.75;999.90;;;;;;;21.72;42.39;95731.19;5044809;28;20098;-65
2021/10/27 03:49:18;;;;;;;1366.70;999.90;;;;;;;21.71;42.55;95731.66;5047795;28;20045;-65
2021/10/27 03:51:44;;;;;;;1366.03;999.90;;;;;;;21.70;42.54;95730.16;5044937;28;20021;-65
2021/10/27 03:54:09;;;;;;;1358.30;999.90;;;;;;;21.71;42.39;95726.97;5047139;28;20044;-65
2021/10/27 03:56:35;;;;;;;1354.50;999.90;;;;;;;21.71;42.42;95726.22;5047279;28;20032;-65
2021/10/27 03:59:00;;;;;;;1351.70;999.90;;;;;;;21.67;42.54;95714.81;5047388;28;20033;-66
2021/10/27 04:01:26;;;;;;;1359.28;999.90;;;;;;;21.68;42.53;95732.63;5047104;28;20037;-65
2021/10/27 04:03:51;;;;;;;1360.68;999.90;;;;;;;21.67;42.80;95729.19;5027484;28;20158;-64
2021/10/27 04:06:17;;;;;;;1361.72;999.90;;;;;;;21.66;42.38;95726.94;5047521;28;20032;-65
2021/10/27 04:08:42;;;;;;;1360.60;999.90;;;;;;;21.66;42.57;95724.22;5047202;28;20037;-65
2021/10/27 04:11:08;;;;;;;1363.85;999.90;;;;;;;21.59;42.53;95719.94;5046994;28;20483;-65
2021/10/27 04:13:35;;;;;;;1360.95;999.90;;;;;;;21.65;42.54;95728.16;5046580;28;20040;-66
2021/10/27 04:16:00;;;;;;;1357.28;999.90;;;;;;;21.63;42.61;95730.63;5047111;28;20036;-65
2021/10/27 04:18:26;;;;;;;1354.97;999.90;;;;;;;21.64;42.49;95732.09;5047061;28;20031;-65
2021/10/27 04:20:51;;;;;;;1358.30;999.90;;;;;;;21.63;42.50;95730.63;5046782;28;20025;-64
2021/10/27 04:23:17;;;;;;;1351.00;999.90;;;;;;;21.64;42.49;95737.53;5046871;28;20041;-65
2021/10/27 04:25:42;;;;;;;1351.93;999.90;;;;;;;21.64;42.57;95726.66;5045686;28;20037;-66
2021/10/27 04:28:08;;;;;;;1357.60;999.90;;;;;;;21.61;42.44;95733.03;5046783;28;20025;-65
2021/10/27 04:30:34;;;;;;;1355.78;999.90;;;;;;;21.52;42.48;95719.63;5046874;28;20020;-65
2021/10/27 04:33:00;;;;;;;1359.28;999.90;;;;;;;21.63;42.61;95736.03;5028230;28;20078;-66
2021/10/27 04:35:26;;;;;;;1358.68;999.90;;;;;;;21.63;42.63;95736.03;5046548;28;20061;-65
2021/10/27 04:37:51;;;;;;;1352.35;999.90;;;;;;;21.62;42.52;95729.09;5046785;28;20384;-66
2021/10/27 04:40:18;;;;;;;1356.75;999.90;;;;;;;21.62;42.46;95729.09;5046836;28;20029;-66
2021/10/27 04:42:43;;;;;;;1351.97;999.90;;;;;;;21.62;42.52;95729.09;5028442;28;20040;-65
2021/10/27 04:45:09;;;;;;;1352.30;999.90;;;;;;;21.61;42.60;95735.75;5028645;28;20068;-66
2021/10/27 04:47:34;;;;;;;1369.88;999.90;;;;;;;21.60;42.61;95731.56;5046461;28;20056;-66
2021/10/27 04:50:00;;;;;;;1367.82;999.90;;;;;;;21.44;42.44;95718.53;5028571;28;20047;-65
2021/10/27 04:52:26;;;;;;;1367.38;999.90;;;;;;;21.43;42.68;95727.91;5028029;28;20032;-65
2021/10/27 04:54:51;;;;;;;1361.38;999.90;;;;;;;21.56;42.59;95741.91;5026692;28;20040;-65
2021/10/27 04:57:17;;;;;;;1363.05;999.90;;;;;;;21.57;42.55;95752.28;5045398;28;20053;-65
2021/10/27 04:59:43;;;;;;;1365.68;999.90;;;;;;;21.47;42.47;95733.91;5026614;28;20033;-64
2021/10/27 05:02:09;;;;;;;1362.82;999.90;;;;;;;21.56;42.59;95747.34;5026740;28;20058;-65
2021/10/27 05:04:35;;;;;;;1366.03;999.90;;;;;;;21.57;42.56;95757.00;5044195;28;20060;-66
2021/10/27 05:07:01;;;;;;;1359.47;999.90;;;;;;;21.57;42.36;95762.44;5044784;28;20060;-64
2021/10/27 05:09:27;;;;;;;1365.18;999.90;;;;;;;21.59;42.49;95765.41;5043431;28;20052;-65
2021/10/27 05:11:53;;;;;;;1367.43;999.90;;;;;;;21.64;42.43;95770.13;5045630;28;20431;-65
2021/10/27 05:14:19;;;;;;;1369.30;999.90;;;;;;;21.66;42.38;95763.00;5027206;28;20024;-69
2021/10/27 05:16:45;;;;;;;1369.32;999.90;;;;;;;21.52;42.35;95735.91;5044443;28;20408;-67
2021/10/27 05:19:10;;;;;;;1367.50;999.90;;;;;;;21.80;42.44;95766.84;5027245;28;20387;-68
2021/10/27 05:21:36;;;;;;;1373.10;999.90;;;;;;;21.87;42.47;95774.56;5044092;28;20041;-70
2021/10/27 05:24:01;;;;;;;1360.60;999.90;;;;;;;21.92;42.49;95774.59;5040317;28;20039;-69
2021/10/27 05:26:27;;;;;;;1363.72;999.90;;;;;;;21.95;42.36;95774.38;5045557;28;20032;-72
2021/10/27 05:28:52;;;;;;;1361.00;999.90;;;;;;;21.92;42.54;95763.00;5045292;28;20259;-71
2021/10/27 05:31:18;;;;;;;1361.35;999.90;;;;;;;22.01;42.27;95788.78;5045556;28;20024;-72
2021/10/27 05:33:43;;;;;;;1359.57;999.90;;;;;;;22.06;42.32;95785.38;5045428;28;20546;-72
2021/10/27 05:36:09;;;;;;;1359.85;999.90;;;;;;;22.10;42.42;95791.34;5043349;28;20149;-72
2021/10/27 05:38:35;;;;;;;1360.45;999.90;;;;;;;22.19;42.17;95793.88;5043891;28;20024;-72
2021/10/27 05:41:01;;;;;;;1362.47;999.90;;;;;;;22.21;42.00;95788.00;5044835;28;20688;-71
2021/10/27 05:43:26;;;;;;;1368.60;999.90;;;;;;;22.39;41.61;95796.56;5043915;28;20498;-72
2021/10/27 05:45:55;;;;;;;1365.07;999.90;;;;;;;22.48;41.46;95793.63;5044653;28;20051;-71
2021/10/27 05:48:22;;;;;;;1365.53;999.90;;;;;;;22.62;41.28;95806.38;5027071;28;20033;-72
2021/10/27 05:51:14;;;;;;;1367.78;999.90;;;;;;;22.73;40.92;95809.16;5044530;28;20017;-72
2021/10/27 05:56:24;;;;;;;1371.28;999.90;;;;;;;22.98;40.76;95804.38;5044226;28;20090;-72
2021/10/27 05:58:50;;;;;;;1371.38;999.90;;;;;;;23.03;40.54;95798.25;5043853;28;20029;-71
2021/10/27 06:01:16;;;;;;;1369.35;999.90;;;;;;;23.21;40.22;95810.69;5025389;28;20112;-71
2021/10/27 06:03:41;;;;;;;1369.40;999.90;;;;;;;23.36;39.99;95812.00;5011660;28;20053;-72
2021/10/27 06:06:07;;;;;;;1367.10;999.90;;;;;;;23.49;39.39;95825.94;5004305;28;20032;-71
2021/10/27 06:08:33;;;;;;;1368.82;999.90;;;;;;;23.58;39.50;95818.28;5004206;28;20017;-71
2021/10/27 06:11:06;;;;;;;1362.40;999.90;;;;;;;23.71;39.54;95826.03;5004139;28;20018;-70
2021/10/27 06:13:35;;;;;;;1362.85;999.90;;;;;;;23.81;39.00;95836.25;5003906;28;20036;-69
2021/10/27 06:16:00;;;;;;;1368.75;999.90;;;;;;;23.92;39.03;95826.06;5003439;28;20057;-71
2021/10/27 06:18:26;;;;;;;1366.25;999.90;;;;;;;23.99;38.80;95825.59;5004740;28;20022;-70
2021/10/27 06:20:52;;;;;;;1366.05;999.90;;;;;;;24.11;38.67;95824.38;5001623;28;20029;-71
2021/10/27 06:23:17;;;;;;;1364.20;999.90;;;;;;;24.22;38.10;95835.31;5004238;28;20140;-71
2021/10/27 06:25:43;;;;;;;1377.13;999.90;;;;;;;24.17;37.66;95814.22;5004136;28;20036;-71
2021/10/27 06:28:11;;;;;;;1374.07;999.90;;;;;;;24.36;37.98;95846.03;5003164;28;20476;-71
2021/10/27 06:39:22;;;;;;;1382.15;999.90;;;;;;;24.54;37.22;95842.06;4981703;28;20412;-69
2021/10/27 06:47:16;;;;;;;1378.35;999.90;;;;;;;24.86;36.79;95852.97;4999114;28;20037;-65
2021/10/27 06:49:42;;;;;;;1380.65;999.90;;;;;;;24.89;36.87;95857.44;4998956;28;20038;-65
2021/10/27 06:52:07;;;;;;;1375.50;999.90;;;;;;;24.88;36.82;95866.84;5002636;28;20022;-65
2021/10/27 06:54:33;;;;;;;1377.78;999.90;;;;;;;24.90;36.94;95863.63;5003493;28;20029;-65
2021/10/27 06:56:58;;;;;;;1374.00;999.90;;;;;;;24.96;36.83;95864.38;4984273;28;20096;-64
2021/10/27 06:59:32;;;;;;;1375.10;999.90;;;;;;;24.93;37.09;95863.41;5002782;28;20030;-65
2021/10/27 07:15:01;;;;;;;1371.43;999.90;;;;;;;24.63;37.31;95855.44;5042592;28;20099;-64
2021/10/27 07:17:26;;;;;;;1378.60;999.90;;;;;;;24.59;37.08;95855.72;5041952;28;20033;-65
2021/10/27 07:19:53;;;;;;;1382.43;999.90;;;;;;;24.50;37.12;95857.94;5024256;28;20032;-64
2021/10/27 07:22:18;;;;;;;1380.63;999.90;;;;;;;24.42;37.38;95857.69;5026122;28;20021;-66
2021/10/27 07:24:44;;;;;;;1371.60;999.90;;;;;;;24.33;37.27;95843.53;5029447;28;20025;-66
2021/10/27 07:27:10;;;;;;;1376.82;999.90;;;;;;;24.21;37.61;95842.00;5028167;28;20041;-66
2021/10/27 07:29:37;;;;;;;1381.05;999.90;;;;;;;24.15;37.87;95838.50;5029458;28;20036;-62
2021/10/27 07:32:04;;;;;;;1379.80;999.90;;;;;;;24.10;38.14;95831.06;5027321;28;20523;-67
2021/10/27 07:34:33;;;;;;;1380.95;999.90;;;;;;;24.19;37.63;95843.75;5029101;28;20025;-65
2021/10/27 07:42:39;;;;;;;1371.45;999.90;;;;;;;24.08;38.04;95849.94;5026686;28;20029;-65
2021/10/27 07:45:05;;;;;;;1374.80;999.90;;;;;;;24.01;37.77;95844.94;5035065;28;20043;-66
2021/10/27 07:47:31;;;;;;;1377.28;999.90;;;;;;;24.01;37.86;95866.78;5047280;28;20025;-64
2021/10/27 07:49:56;;;;;;;1377.82;999.90;;;;;;;23.96;38.33;95848.41;5046651;28;20039;-63
2021/10/27 07:52:23;;;;;;;1374.03;999.90;;;;;;;23.90;38.02;95850.38;5046423;28;20036;-64
2021/10/27 07:54:49;;;;;;;1372.57;999.90;;;;;;;23.88;38.13;95846.66;5047015;28;20478;-64
2021/10/27 07:57:15;;;;;;;1370.78;999.90;;;;;;;23.88;38.52;95839.22;5046895;28;20040;-64
2021/10/27 07:59:41;;;;;;;1362.70;999.90;;;;;;;23.86;38.84;95844.41;5043315;28;20036;-64
2021/10/27 08:02:06;;;;;;;1372.75;999.90;;;;;;;23.83;38.37;95838.47;5043548;28;20029;-64
2021/10/27 08:04:33;;;;;;;1365.78;999.90;;;;;;;23.85;38.13;95842.19;4806240;28;20062;-64
2021/10/27 08:06:59;;;;;;;1369.72;999.90;;;;;;;23.82;38.76;95836.97;4922884;28;20107;-64
2021/10/27 08:09:25;;;;;;;1360.28;999.90;;;;;;;23.80;38.67;95842.19;4988465;28;20452;-64
2021/10/27 08:11:50;;;;;;;1360.97;999.90;;;;;;;23.69;38.80;95829.25;4991164;28;20033;-66
2021/10/27 08:14:17;;;;;;;1365.20;999.90;;;;;;;23.77;38.86;95834.97;4996205;28;20018;-67
2021/10/27 08:16:43;;;;;;;1364.82;999.90;;;;;;;23.76;38.94;95849.84;4994467;28;20072;-64
2021/10/27 08:19:09;;;;;;;1368.10;999.90;;;;;;;23.73;38.91;95834.47;4991359;28;20394;-65
2021/10/27 08:21:34;;;;;;;1365.97;999.90;;;;;;;23.73;38.51;95839.91;4992255;28;20057;-65
2021/10/27 08:24:01;;;;;;;1361.95;999.90;;;;;;;23.70;38.53;95830.72;4991523;28;20022;-65
2021/10/27 08:26:27;;;;;;;1357.10;999.90;;;;;;;23.71;38.79;95837.69;4989986;28;20019;-65
2021/10/27 08:28:58;;;;;;;1361.72;999.90;;;;;;;23.71;38.83;95842.41;4989119;28;20104;-65
2021/10/27 08:31:38;;;;;;;1373.75;999.90;;;;;;;23.71;38.80;95837.69;4990478;28;20045;-65
2021/10/27 08:34:09;;;;;;;;;;;;;;;23.70;38.64;95836.19;4986887;28;20022;-65
2021/10/27 08:36:34;;;;;;;1368.65;999.90;;;;;;;23.69;38.61;95837.44;4997502;28;20392;-64
2021/10/27 08:39:01;;;;;;;1367.75;999.90;;;;;;;23.68;38.95;95832.47;4988084;28;20077;-64
2021/10/27 08:41:26;;;;;;;1370.38;999.90;;;;;;;23.64;39.02;95831.97;4989405;28;20072;-64
2021/10/27 08:43:52;;;;;;;1369.53;999.90;;;;;;;23.67;38.90;95837.16;4988011;28;20488;-65
2021/10/27 08:46:18;;;;;;;1367.53;999.90;;;;;;;23.57;38.98;95810.56;4987790;28;20022;-65
2021/10/27 08:48:49;;;;;;;1364.65;999.90;;;;;;;23.66;39.30;95824.03;4985405;28;20034;-65
2021/10/27 08:51:15;;;;;;;1356.28;999.90;;;;;;;23.68;38.95;95827.03;4985296;28;20482;-65
2021/10/27 08:53:40;;;;;;;1366.00;999.90;;;;;;;23.68;39.12;95833.22;5003136;28;20120;-66
2021/10/27 08:56:06;;;;;;;1369.32;999.90;;;;;;;23.71;39.08;95829.50;4988335;28;20014;-65
2021/10/27 08:58:37;;;;;;;1365.90;999.90;;;;;;;23.61;38.99;95817.28;4989475;28;20140;-64
2021/10/27 09:03:57;;;;;;;1389.90;999.90;;;;;;;23.70;38.75;95824.53;4990415;28;20068;-64
2021/10/27 09:41:18;;;;;;;;;;;;;;;-140.79;100.00;63287.88;5004580;28;20004;-65
2021/10/27 10:05:22;;;;;;;;;;;;;;;-140.79;100.00;63287.88;4994246;28;19932;-67
2021/10/27 10:07:48;;;;;;;;;;;;;;;-140.79;100.00;63287.88;5020474;28;19913;-68
2021/10/27 10:10:13;;;;;;;;;;;;;;;-140.79;100.00;63287.88;5020719;28;19920;-70
2021/10/27 10:12:43;;;;;;;;;;;;;;;-140.79;100.00;63287.88;5005806;28;19925;-72
2021/10/27 10:15:09;;;;;;;;;;;;;;;-140.79;100.00;63287.88;5020923;28;19909;-69
2021/10/27 10:17:36;;;;;;;;;;;;;;;-140.79;100.00;63287.88;4996774;28;20569;-70
2021/10/27 10:20:01;;;;;;;;;;;;;;;-140.79;100.00;63287.88;5006395;28;19962;-68
2021/10/27 10:22:28;;;;;;;;;;;;;;;-140.79;100.00;63287.88;5016801;28;20666;-69
2021/10/27 10:24:54;;;;;;;;;;;;;;;-140.79;100.00;63287.88;5005058;28;19916;-68
2021/10/27 10:27:35;;;;;;;;;;;;;;;-140.79;100.00;63287.88;5005543;28;20516;-68
2021/10/27 10:30:04;;;;;;;;;;;;;;;-140.79;100.00;63287.88;5004782;28;19995;-66
2021/10/27 10:32:30;;;;;;;;;;;;;;;-140.79;100.00;63287.88;5004722;28;19970;-67
2021/10/27 10:34:58;;;;;;;;;;;;;;;-140.79;100.00;63287.88;4999894;28;19921;-68
2021/10/27 11:24:23;;;;;;;;;;;;;;;-140.79;100.00;63287.88;5001980;28;20410;-68
2021/10/27 11:27:12;;;;;;;;;;;;;;;-140.79;100.00;63287.88;5004334;28;19968;-67
2021/10/27 11:40:33;;;;;;;;;;;;;;;-140.79;100.00;63287.88;4993053;28;19909;-66
2021/10/27 11:48:25;;;;;;;;;;;;;;;-140.79;100.00;63287.88;5005064;28;20063;-66
2021/10/27 11:50:51;;;;;;;1375.93;999.90;;;;;;;-140.79;100.00;63287.88;5004112;28;20577;-65
2021/10/27 11:53:27;;;;;;;1383.47;999.90;;;;;;;-140.79;100.00;63287.88;5003815;28;20029;-67
2021/10/27 11:55:53;;;;;;;1384.65;999.90;;;;;;;-140.79;100.00;63287.88;5004141;28;20030;-66
2021/10/27 11:58:19;;;;;;;1382.90;999.90;;;;;;;-140.79;100.00;63287.88;4986698;28;20104;-66
2021/10/27 12:00:50;;;;;;;1378.07;999.90;;;;;;;-140.79;100.00;63287.88;5003969;28;20041;-66
2021/10/27 12:03:17;;;;;;;1379.20;999.90;;;;;;;-140.79;100.00;63287.88;5002058;28;20587;-66
2021/10/27 12:05:56;;;;;;;1377.78;999.90;;;;;;;-140.79;100.00;63287.88;4998993;28;20034;-65
2021/10/27 12:08:58;;;;;;;1379.95;999.90;;;;;;;-140.79;100.00;63287.88;4988208;28;20037;-66
2021/10/27 12:14:00;;;;;;;1376.25;999.90;;;;;;;-140.79;100.00;63287.88;4977557;28;20119;-67
2021/10/27 12:19:02;;;;;;;1382.57;999.90;;;;;;;-140.79;100.00;63287.88;4999414;28;20084;-69
2021/10/27 12:21:28;;;;;;;1385.50;999.90;;;;;;;-140.79;100.00;63287.88;4988738;28;20516;-66
2021/10/27 12:23:55;;;;;;;1380.78;999.90;;;;;;;-140.79;100.00;63287.88;5006055;28;20022;-67
2021/10/27 12:26:22;;;;;;;1379.22;999.90;;;;;;;-140.79;100.00;63287.88;5004958;28;20061;-67
2021/10/27 12:28:51;;;;;;;1380.32;999.90;;;;;;;-140.79;100.00;63287.88;5003335;28;20044;-67
2021/10/27 12:31:18;;;;;;;1383.83;999.90;;;;;;;-140.79;100.00;63287.88;4988957;28;20017;-66
2021/10/27 12:33:44;;;;;;;1381.57;999.90;;;;;;;-140.79;100.00;63287.88;5005942;28;20488;-66
2021/10/27 12:36:12;;;;;;;1381.78;999.90;;;;;;;-140.79;100.00;63287.88;4989115;28;20064;-67
2021/10/27 12:38:37;;;;;;;1385.18;999.90;;;;;;;-140.79;100.00;63287.88;4969954;28;20107;-66
2021/10/27 12:41:15;;;;;;;1396.20;999.90;;;;;;;-140.79;100.00;63287.88;5006722;28;20026;-65
2021/10/27 12:43:42;;;;;;;1388.43;999.90;;;;;;;-140.79;100.00;63287.88;4989916;28;20045;-67
2021/10/27 12:46:17;;;;;;;1385.95;999.90;;;;;;;-140.79;100.00;63287.88;5005958;28;20037;-66
2021/10/27 12:48:43;;;;;;;1389.68;999.90;;;;;;;-140.79;100.00;63287.88;5007014;28;20045;-67
2021/10/27 12:51:09;;;;;;;1390.63;999.90;;;;;;;-140.79;100.00;63287.88;4985310;28;20152;-66
2021/10/27 12:53:45;;;;;;;1387.85;999.90;;;;;;;-140.79;100.00;63287.88;4988285;28;20045;-67
2021/10/27 12:56:16;;;;;;;1388.18;999.90;;;;;;;-140.79;100.00;63287.88;4987152;28;20113;-67
2021/10/27 12:58:46;;;;;;;1383.88;999.90;;;;;;;-140.79;100.00;63287.88;5004369;28;20168;-66
2021/10/27 13:14:41;;;;;;;1391.82;999.90;;;;;;;-140.79;100.00;63287.88;5005041;28;20092;-68
2021/10/27 13:30:34;;;;;;;1375.20;999.90;;;;;;;-140.79;100.00;63287.88;4974935;28;20038;-68
2021/10/27 13:33:02;;;;;;;1390.88;999.90;;;;;;;-140.79;100.00;63287.88;4988676;28;20622;-68
2021/10/27 13:35:28;;;;;;;1382.60;999.90;;;;;;;-140.79;100.00;63287.88;5006242;28;20030;-68
2021/10/27 13:37:53;;;;;;;1379.05;999.90;;;;;;;-140.79;100.00;63287.88;5005991;28;20471;-68
2021/10/27 13:40:19;;;;;;;1378.22;999.90;;;;;;;-140.79;100.00;63287.88;5006298;28;20033;-68
2021/10/27 13:48:04;;;;;;;1382.72;999.90;;;;;;;-140.79;100.00;63287.88;5005773;28;20036;-67
2021/10/27 14:06:51;;;;;;;1394.15;999.90;;;;;;;-140.79;100.00;63287.88;4985186;28;20092;-68
2021/10/27 14:19:49;;;;;;;1402.95;999.90;;;;;;;-140.79;100.00;63287.88;4983341;28;20030;-67
2021/10/27 14:39:12;;;;;;;1413.15;999.90;;;;;;;-140.79;100.00;63287.88;4984703;28;20064;-67
2021/10/27 14:47:35;;;;;;;1407.10;999.90;;;;;;;-140.79;100.00;63287.88;4982573;28;20026;-67
2021/10/27 15:20:12;;;;;;;1383.07;999.90;;;;;;;-140.79;100.00;63287.88;4975038;28;20026;-67
2021/10/27 15:51:53;;;;;;;1449.07;999.90;;;;;;;-140.79;100.00;63287.88;4970857;28;20038;-64
2021/10/27 15:54:19;;;;;;;1432.72;999.90;;;;;;;-140.79;100.00;63287.88;4971504;28;20019;-65
2021/10/27 15:56:45;;;;;;;1440.55;999.90;;;;;;;-140.79;100.00;63287.88;5000130;28;20130;-70
2021/10/27 15:59:10;;;;;;;1440.18;999.90;;;;;;;-140.79;100.00;63287.88;4989935;28;20089;-67
2021/10/27 16:01:36;;;;;;;1438.00;999.90;;;;;;;-140.79;100.00;63287.88;4978509;28;20027;-66